Time;durP1;ratioP1;P1;durP2;ratioP2;P2;SDS_P1;SDS_P2;PMS_P1;PMS_P2;Temp;Humidity;BMP_temperature;BMP_pressure;BME280_temperature;BME280_humidity;BME280_pressure;Samples;Min_cycle;Max_cycle;Signal;HPM_P1;HPM_P2
2021/11/01 00:01:36;;;;;;;9.77;5.93;;;;;;;;;;4382726;32;20072;-62
2021/11/01 00:04:03;;;;;;;9.82;5.65;;;;;;;;;;4374983;32;20071;-61
2021/11/01 00:06:31;;;;;;;9.38;5.62;;;;;;;;;;4415333;32;20087;-63
2021/11/01 00:08:57;;;;;;;9.07;5.30;;;;;;;;;;4395246;32;20535;-62
2021/11/01 00:11:24;;;;;;;7.72;5.32;;;;;;;;;;4381802;32;20096;-63
2021/11/01 00:13:50;;;;;;;10.55;5.50;;;;;;;;;;4406690;32;20082;-61
2021/11/01 00:16:17;;;;;;;8.50;5.43;;;;;;;;;;4393972;32;20523;-62
2021/11/01 00:18:44;;;;;;;10.00;5.75;;;;;;;;;;4369397;32;20078;-62
2021/11/01 00:21:10;;;;;;;8.00;5.30;;;;;;;;;;4406899;32;20462;-63
2021/11/01 00:23:38;;;;;;;9.05;5.60;;;;;;;;;;4369670;32;20248;-62
2021/11/01 00:26:04;;;;;;;9.07;5.82;;;;;;;;;;4382198;32;20494;-63
2021/11/01 00:28:31;;;;;;;8.73;5.30;;;;;;;;;;4369196;32;20086;-61
2021/11/01 00:30:58;;;;;;;7.95;5.70;;;;;;;;;;4381458;32;20179;-63
2021/11/01 00:33:25;;;;;;;8.90;5.65;;;;;;;;;;4381880;32;20082;-62
2021/11/01 00:35:52;;;;;;;8.55;5.55;;;;;;;;;;4393960;32;20080;-61
2021/11/01 00:38:19;;;;;;;9.18;5.50;;;;;;;;;;4369378;32;20069;-63
2021/11/01 00:40:45;;;;;;;9.18;5.62;;;;;;;;;;4393933;32;20083;-63
2021/11/01 00:43:12;;;;;;;8.65;5.28;;;;;;;;;;4406535;32;20467;-63
2021/11/01 00:45:39;;;;;;;10.00;6.15;;;;;;;;;;4381831;32;20081;-62
2021/11/01 00:48:05;;;;;;;9.65;6.00;;;;;;;;;;4406391;32;20080;-63
2021/11/01 00:50:33;;;;;;;9.30;6.03;;;;;;;;;;4393609;32;20084;-62
2021/11/01 00:52:59;;;;;;;7.70;5.07;;;;;;;;;;4381906;32;20066;-61
2021/11/01 00:55:35;;;;;;;9.60;5.57;;;;;;;;;;4393433;32;20066;-62
2021/11/01 00:58:06;;;;;;;10.25;6.35;;;;;;;;;;4406029;32;20070;-61
2021/11/01 01:00:33;;;;;;;10.43;6.40;;;;;;;;;;4393626;32;20587;-62
2021/11/01 01:02:59;;;;;;;9.23;6.03;;;;;;;;;;4408123;32;20483;-62
2021/11/01 01:05:26;;;;;;;10.27;6.10;;;;;;;;;;4381148;32;20074;-62
2021/11/01 01:07:53;;;;;;;9.73;5.62;;;;;;;;;;4380962;32;20081;-62
2021/11/01 01:10:20;;;;;;;7.43;5.00;;;;;;;;;;4381367;32;20579;-61
2021/11/01 01:12:46;;;;;;;9.65;6.05;;;;;;;;;;4406062;32;20077;-63
2021/11/01 01:15:20;;;;;;;9.70;6.00;;;;;;;;;;4393614;32;20076;-62
2021/11/01 01:17:47;;;;;;;10.27;6.65;;;;;;;;;;4394078;32;20089;-63
2021/11/01 01:20:16;;;;;;;11.40;6.55;;;;;;;;;;4393225;32;20242;-62
2021/11/01 01:22:43;;;;;;;11.38;6.05;;;;;;;;;;4393759;32;20086;-61
2021/11/01 01:27:46;;;;;;;11.50;6.30;;;;;;;;;;4393977;32;20156;-62
2021/11/01 01:30:13;;;;;;;8.90;5.85;;;;;;;;;;4367963;32;20516;-62
2021/11/01 01:32:39;;;;;;;9.50;5.87;;;;;;;;;;4380603;32;20084;-62
2021/11/01 01:35:07;;;;;;;9.57;6.03;;;;;;;;;;4393370;32;20073;-62
2021/11/01 01:37:33;;;;;;;7.95;5.80;;;;;;;;;;4380816;32;20081;-63
2021/11/01 01:40:00;;;;;;;8.95;6.32;;;;;;;;;;4380902;32;20082;-61
2021/11/01 01:42:27;;;;;;;10.27;6.70;;;;;;;;;;4380846;32;20077;-63
2021/11/01 01:44:54;;;;;;;10.02;6.40;;;;;;;;;;4380751;32;20085;-63
2021/11/01 01:47:21;;;;;;;9.57;6.00;;;;;;;;;;4368962;32;20096;-62
2021/11/01 01:49:48;;;;;;;9.85;6.50;;;;;;;;;;4367816;32;20073;-64
2021/11/01 01:52:15;;;;;;;10.13;5.93;;;;;;;;;;4393470;32;20082;-63
2021/11/01 01:54:41;;;;;;;11.45;6.40;;;;;;;;;;4406298;32;20073;-62
2021/11/01 01:57:08;;;;;;;11.45;6.65;;;;;;;;;;4382489;32;20089;-62
2021/11/01 01:59:35;;;;;;;10.02;7.05;;;;;;;;;;4381728;32;20069;-60
2021/11/01 02:02:03;;;;;;;11.50;7.30;;;;;;;;;;4380388;32;20092;-63
2021/11/01 02:04:29;;;;;;;12.30;7.15;;;;;;;;;;4394084;32;20088;-61
2021/11/01 02:08:52;;;;;;;10.50;6.95;;;;;;;;;;3857104;37;20093;-62
2021/11/01 02:11:22;;;;;;;12.07;8.00;;;;;;;;;;4406865;32;20180;-61
2021/11/01 02:13:51;;;;;;;11.27;7.50;;;;;;;;;;4405914;32;20096;-62
2021/11/01 02:16:17;;;;;;;12.37;7.03;;;;;;;;;;4380688;32;20085;-63
2021/11/01 02:18:48;;;;;;;10.88;7.55;;;;;;;;;;4393139;32;20094;-63
2021/11/01 02:21:25;;;;;;;11.68;7.28;;;;;;;;;;4405939;32;20096;-61
2021/11/01 02:24:07;;;;;;;10.07;7.68;;;;;;;;;;4418288;32;20061;-62
2021/11/01 02:26:35;;;;;;;11.23;7.55;;;;;;;;;;4406839;32;20181;-61
2021/11/01 02:29:01;;;;;;;10.82;7.32;;;;;;;;;;4418491;32;20504;-62
2021/11/01 02:31:28;;;;;;;14.80;7.78;;;;;;;;;;4399920;32;20081;-62
2021/11/01 02:33:55;;;;;;;12.60;7.55;;;;;;;;;;4384361;32;20077;-63
2021/11/01 02:36:22;;;;;;;11.73;7.97;;;;;;;;;;4391084;32;20074;-63
2021/11/01 02:38:52;;;;;;;12.15;7.10;;;;;;;;;;4404276;32;20096;-63
2021/11/01 02:41:26;;;;;;;11.85;7.60;;;;;;;;;;4391116;32;20496;-62
2021/11/01 02:43:57;;;;;;;11.98;8.20;;;;;;;;;;4390339;32;20157;-62
2021/11/01 02:46:24;;;;;;;12.25;7.40;;;;;;;;;;4403790;32;20529;-64
2021/11/01 02:48:51;;;;;;;12.65;7.95;;;;;;;;;;4390196;32;20085;-62
2021/11/01 02:51:19;;;;;;;12.43;7.90;;;;;;;;;;4390284;32;20062;-63
2021/11/01 02:53:46;;;;;;;13.07;8.13;;;;;;;;;;4377655;32;20503;-62
2021/11/01 02:56:13;;;;;;;12.35;7.80;;;;;;;;;;4390040;32;20069;-62
2021/11/01 02:58:41;;;;;;;11.98;7.95;;;;;;;;;;4402431;32;20097;-62
2021/11/01 03:01:12;;;;;;;11.93;7.57;;;;;;;;;;4402404;32;20548;-62
2021/11/01 03:03:39;;;;;;;11.82;7.87;;;;;;;;;;4402433;32;20512;-61
2021/11/01 03:06:06;;;;;;;13.43;8.43;;;;;;;;;;4377227;32;20162;-62
2021/11/01 03:08:33;;;;;;;13.27;9.07;;;;;;;;;;4377435;32;20100;-61
2021/11/01 03:11:00;;;;;;;13.25;8.63;;;;;;;;;;4390069;32;20175;-61
2021/11/01 03:13:28;;;;;;;13.35;8.40;;;;;;;;;;4389222;32;20540;-63
2021/11/01 03:15:55;;;;;;;14.63;9.35;;;;;;;;;;4389863;32;20065;-63
2021/11/01 03:18:22;;;;;;;14.35;8.82;;;;;;;;;;4374048;32;20082;-62
2021/11/01 03:20:49;;;;;;;14.70;8.88;;;;;;;;;;4379844;32;20425;-63
2021/11/01 03:23:22;;;;;;;14.90;8.80;;;;;;;;;;4367347;32;20082;-63
2021/11/01 03:25:58;;;;;;;15.57;9.35;;;;;;;;;;4380613;32;20077;-62
2021/11/01 03:28:25;;;;;;;14.15;10.05;;;;;;;;;;4379888;32;20238;-63
2021/11/01 03:30:52;;;;;;;13.95;9.15;;;;;;;;;;4392103;32;20076;-61
2021/11/01 03:33:19;;;;;;;15.13;9.50;;;;;;;;;;4391531;32;20119;-62
2021/11/01 03:35:46;;;;;;;17.42;10.57;;;;;;;;;;4392130;32;20081;-62
2021/11/01 03:38:13;;;;;;;12.98;9.20;;;;;;;;;;4356229;32;20097;-62
2021/11/01 03:40:43;;;;;;;16.08;9.27;;;;;;;;;;4391621;32;20086;-63
2021/11/01 03:43:10;;;;;;;15.20;9.60;;;;;;;;;;4379749;32;20086;-61
2021/11/01 03:45:38;;;;;;;15.48;9.50;;;;;;;;;;4401054;32;20065;-63
2021/11/01 03:48:06;;;;;;;13.90;9.05;;;;;;;;;;4377354;32;20510;-62
2021/11/01 03:50:44;;;;;;;12.98;8.98;;;;;;;;;;4390472;32;20077;-61
2021/11/01 03:53:11;;;;;;;14.90;9.68;;;;;;;;;;4375469;32;20085;-63
2021/11/01 03:55:38;;;;;;;13.50;9.52;;;;;;;;;;4379574;32;20515;-62
2021/11/01 03:58:05;;;;;;;13.20;6.87;;;;;;;;;;4379031;32;20062;-63
2021/11/01 04:00:35;;;;;;;7.82;5.03;;;;;;;;;;4379142;32;20074;-62
2021/11/01 04:03:02;;;;;;;10.65;7.53;;;;;;;;;;4378976;32;20070;-62
2021/11/01 04:05:30;;;;;;;11.98;7.28;;;;;;;;;;4378807;32;20078;-64
2021/11/01 04:07:57;;;;;;;14.55;10.00;;;;;;;;;;4378625;32;20154;-61
2021/11/01 04:10:24;;;;;;;15.50;10.05;;;;;;;;;;4366841;32;20115;-62
2021/11/01 04:12:50;;;;;;;16.60;10.73;;;;;;;;;;4379377;32;20070;-61
2021/11/01 04:15:25;;;;;;;16.85;11.38;;;;;;;;;;4379372;32;20115;-63
2021/11/01 04:18:00;;;;;;;8.77;5.90;;;;;;;;;;4392164;32;20077;-63
2021/11/01 04:20:39;;;;;;;10.02;5.82;;;;;;;;;;4379450;32;20066;-62
2021/11/01 04:23:09;;;;;;;12.15;7.18;;;;;;;;;;4382647;32;20431;-63
2021/11/01 04:25:36;;;;;;;19.02;10.65;;;;;;;;;;4399394;32;20150;-62
2021/11/01 04:28:03;;;;;;;17.45;10.93;;;;;;;;;;4400021;32;20138;-64
2021/11/01 04:30:36;;;;;;;16.73;10.43;;;;;;;;;;4367146;32;20518;-63
2021/11/01 04:33:04;;;;;;;17.20;10.63;;;;;;;;;;4367618;32;20077;-62
2021/11/01 04:35:35;;;;;;;14.05;10.63;;;;;;;;;;4366763;32;20070;-62
2021/11/01 04:38:15;;;;;;;19.50;10.27;;;;;;;;;;4390957;32;20089;-62
2021/11/01 04:53:53;;;;;;;17.08;10.00;;;;;;;;;;4392186;32;20077;-62
2021/11/01 04:56:25;;;;;;;16.52;11.20;;;;;;;;;;4381019;32;20488;-61
2021/11/01 04:58:53;;;;;;;17.20;10.55;;;;;;;;;;4389350;32;20149;-61
2021/11/01 05:01:29;;;;;;;16.33;10.68;;;;;;;;;;4395344;32;20559;-62
2021/11/01 05:04:00;;;;;;;16.15;10.25;;;;;;;;;;4367809;32;20089;-63
2021/11/01 05:06:27;;;;;;;16.75;10.90;;;;;;;;;;4378630;32;20077;-62
2021/11/01 05:09:07;;;;;;;17.67;11.65;;;;;;;;;;4365753;32;20086;-61
2021/11/01 05:11:39;;;;;;;17.65;11.88;;;;;;;;;;4379605;32;20077;-61
2021/11/01 05:14:06;;;;;;;18.12;11.77;;;;;;;;;;4366774;32;20094;-62
2021/11/01 05:16:45;;;;;;;16.20;11.12;;;;;;;;;;4390296;32;20497;-61
2021/11/01 05:24:26;;;;;;;17.77;10.70;;;;;;;;;;4380178;32;20511;-63
2021/11/01 05:29:31;;;;;;;19.15;11.30;;;;;;;;;;4379309;32;20058;-63
2021/11/01 05:32:03;;;;;;;19.58;11.48;;;;;;;;;;4378360;32;20085;-63
2021/11/01 05:34:30;;;;;;;18.05;10.63;;;;;;;;;;4390507;32;20080;-64
2021/11/01 05:36:56;;;;;;;17.02;10.73;;;;;;;;;;4391645;32;20542;-62
2021/11/01 05:39:23;;;;;;;17.02;10.70;;;;;;;;;;4365044;32;20066;-62
2021/11/01 05:41:50;;;;;;;15.82;10.63;;;;;;;;;;4365096;32;20171;-63
2021/11/01 05:44:17;;;;;;;16.77;11.52;;;;;;;;;;4365361;32;20082;-61
2021/11/01 05:46:49;;;;;;;17.60;10.90;;;;;;;;;;4389822;32;20080;-63
2021/11/01 05:49:17;;;;;;;16.60;11.10;;;;;;;;;;4379218;32;20157;-63
2021/11/01 05:51:44;;;;;;;17.00;11.07;;;;;;;;;;4390792;32;20085;-61
2021/11/01 05:54:15;;;;;;;18.12;11.23;;;;;;;;;;4377652;32;20531;-63
2021/11/01 06:15:48;;;;;;;21.70;12.85;;;;;;;;;;4391182;32;20080;-63
2021/11/01 06:18:15;;;;;;;22.95;13.23;;;;;;;;;;4365127;32;20094;-62
2021/11/01 06:20:42;;;;;;;14.82;10.27;;;;;;;;;;4365268;32;20182;-62
2021/11/01 06:23:09;;;;;;;20.83;13.20;;;;;;;;;;4365058;32;20145;-63
2021/11/01 06:25:36;;;;;;;18.35;12.88;;;;;;;;;;4377112;32;20468;-63
2021/11/01 06:28:03;;;;;;;18.83;12.77;;;;;;;;;;4364854;32;20500;-63
2021/11/01 06:30:40;;;;;;;19.62;12.77;;;;;;;;;;4365296;32;20081;-63
2021/11/01 06:33:39;;;;;;;;;;;;;;;;;;4366174;32;20161;-63
2021/11/01 06:39:21;;;;;;;20.92;13.57;;;;;;;;;;4390175;32;20093;-62
2021/11/01 06:42:01;;;;;;;18.42;13.05;;;;;;;;;;4380643;32;20067;-63
2021/11/01 06:53:06;;;;;;;18.03;12.37;;;;;;;;;;4375335;32;20086;-64
2021/11/01 07:17:38;;;;;;;19.60;14.98;;;;;;;;;;4381023;32;20069;-63
2021/11/01 07:20:17;;;;;;;18.40;13.88;;;;;;;;;;4371356;32;20090;-62
2021/11/01 07:25:53;;;;;;;17.52;11.85;;;;;;;;;;4393663;32;20490;-63
2021/11/01 08:23:22;;;;;;;23.75;16.12;;;;;;;;;;4371719;32;20093;-62
2021/11/01 08:44:51;;;;;;;23.40;14.23;;;;;;;;;;4370132;32;20175;-62
2021/11/01 09:05:59;;;;;;;19.37;12.60;;;;;;;;;;4377030;32;20582;-62
2021/11/01 09:27:31;;;;;;;22.05;14.48;;;;;;;;;;4322106;33;20199;-64
2021/11/01 09:30:26;;;;;;;21.95;15.13;;;;;;;;;;4362799;32;20205;-63
2021/11/01 09:35:53;;;;;;;21.67;13.73;;;;;;;;;;4362757;32;20074;-63
2021/11/01 09:40:58;;;;;;;20.02;14.02;;;;;;;;;;4366715;32;20151;-62
2021/11/01 09:43:25;;;;;;;21.17;14.70;;;;;;;;;;4361899;32;20089;-63
2021/11/01 09:46:10;;;;;;;23.83;15.18;;;;;;;;;;4379420;32;20063;-64
2021/11/01 09:48:40;;;;;;;17.37;12.57;;;;;;;;;;4366634;32;20054;-64
2021/11/01 09:53:48;;;;;;;20.37;14.02;;;;;;;;;;3862139;37;20071;-62
2021/11/01 09:56:21;;;;;;;20.65;13.68;;;;;;;;;;4418611;32;20082;-63
2021/11/01 10:01:34;;;;;;;24.27;15.07;;;;;;;;;;4407716;32;20069;-63
2021/11/01 10:04:02;;;;;;;20.75;14.60;;;;;;;;;;4392671;32;20183;-62
2021/11/01 10:06:30;;;;;;;21.40;14.15;;;;;;;;;;4392739;32;20467;-63
2021/11/01 10:08:59;;;;;;;19.73;14.35;;;;;;;;;;4405899;32;20507;-63
2021/11/01 10:11:32;;;;;;;21.67;13.95;;;;;;;;;;4405935;32;20153;-61
2021/11/01 10:14:04;;;;;;;22.52;14.38;;;;;;;;;;4405911;32;20093;-62
2021/11/01 10:19:37;;;;;;;20.70;13.90;;;;;;;;;;4396744;32;20078;-62
2021/11/01 10:22:15;;;;;;;18.55;14.57;;;;;;;;;;4417736;32;20181;-64
2021/11/01 10:24:43;;;;;;;16.37;12.70;;;;;;;;;;4407259;32;20160;-63
2021/11/01 10:27:15;;;;;;;20.55;13.93;;;;;;;;;;4406026;32;20111;-63
2021/11/01 10:29:57;;;;;;;20.88;13.98;;;;;;;;;;4418198;32;20077;-63
2021/11/01 10:32:48;;;;;;;18.02;13.13;;;;;;;;;;4406210;32;20084;-64
2021/11/01 10:35:16;;;;;;;18.75;13.25;;;;;;;;;;4402488;32;20061;-64
2021/11/01 10:38:36;;;;;;;19.17;12.73;;;;;;;;;;4402779;32;20073;-63
2021/11/01 10:44:15;;;;;;;20.45;11.95;;;;;;;;;;4377484;32;20472;-63
2021/11/01 11:14:30;;;;;;;18.05;10.90;;;;;;;;;;4392043;32;20116;-63
2021/11/01 11:25:04;;;;;;;18.20;11.55;;;;;;;;;;4381101;32;20070;-63
2021/11/01 11:33:10;;;;;;;15.52;11.73;;;;;;;;;;4391911;32;20089;-64
2021/11/01 11:37:30;;;;;;;17.33;11.15;;;;;;;;;;4392100;32;20161;-63
2021/11/01 11:47:07;;;;;;;18.02;12.18;;;;;;;;;;4381112;32;20444;-63
2021/11/01 11:49:34;;;;;;;16.12;11.25;;;;;;;;;;4368693;32;20088;-63
2021/11/01 11:52:05;;;;;;;15.77;11.50;;;;;;;;;;4378679;32;20081;-62
2021/11/01 11:54:35;;;;;;;16.92;11.98;;;;;;;;;;4366376;32;20077;-64
2021/11/01 11:57:04;;;;;;;18.15;11.82;;;;;;;;;;4391448;32;20500;-63
2021/11/01 11:59:38;;;;;;;16.75;11.82;;;;;;;;;;4379321;32;20604;-62
2021/11/01 12:02:06;;;;;;;16.67;13.02;;;;;;;;;;4379396;32;20076;-63
2021/11/01 12:04:36;;;;;;;16.30;12.25;;;;;;;;;;4381044;32;20102;-62
2021/11/01 12:07:04;;;;;;;18.25;11.48;;;;;;;;;;4380183;32;20092;-61
2021/11/01 12:17:35;;;;;;;15.75;11.50;;;;;;;;;;4378476;32;20070;-62
2021/11/01 12:20:07;;;;;;;18.95;11.95;;;;;;;;;;4378659;32;20508;-63
2021/11/01 12:22:36;;;;;;;20.92;11.80;;;;;;;;;;4378795;32;20072;-63
2021/11/01 12:25:08;;;;;;;19.85;12.82;;;;;;;;;;4378464;32;20078;-64
2021/11/01 12:27:36;;;;;;;16.55;11.55;;;;;;;;;;4378306;32;20512;-63
2021/11/01 12:30:09;;;;;;;16.05;11.65;;;;;;;;;;4378226;32;20520;-63
2021/11/01 12:32:37;;;;;;;17.20;11.93;;;;;;;;;;4365998;32;20078;-62
2021/11/01 12:37:57;;;;;;;17.27;12.25;;;;;;;;;;4378543;32;20186;-64
2021/11/01 12:57:19;;;;;;;15.77;10.60;;;;;;;;;;4380042;32;20081;-62
2021/11/01 12:59:47;;;;;;;15.68;10.63;;;;;;;;;;4378889;32;20496;-64
2021/11/01 13:02:36;;;;;;;15.63;10.57;;;;;;;;;;4378406;32;20081;-62
2021/11/01 13:05:08;;;;;;;14.23;10.93;;;;;;;;;;4380391;32;20066;-63
2021/11/01 13:07:52;;;;;;;16.23;11.48;;;;;;;;;;4377883;32;20078;-64
2021/11/01 13:10:23;;;;;;;16.10;11.27;;;;;;;;;;4379655;32;20089;-63
2021/11/01 13:18:22;;;;;;;20.15;12.00;;;;;;;;;;4379660;32;20175;-62
2021/11/01 13:20:54;;;;;;;17.23;11.15;;;;;;;;;;4365397;32;20081;-64
2021/11/01 13:23:22;;;;;;;16.95;11.18;;;;;;;;;;4390267;32;20081;-62
2021/11/01 13:36:26;;;;;;;18.77;12.27;;;;;;;;;;3857201;37;20055;-62
2021/11/01 13:38:57;;;;;;;19.50;12.35;;;;;;;;;;4406955;32;20072;-63
2021/11/01 13:41:28;;;;;;;22.27;11.98;;;;;;;;;;4393960;32;20172;-63
2021/11/01 13:44:19;;;;;;;18.00;12.37;;;;;;;;;;4419231;32;20086;-62
2021/11/01 13:46:50;;;;;;;20.37;12.93;;;;;;;;;;4405788;32;20103;-65
2021/11/01 13:49:18;;;;;;;19.25;13.02;;;;;;;;;;4392942;32;20085;-64
2021/11/01 13:51:47;;;;;;;20.92;13.27;;;;;;;;;;4393272;32;20088;-62
2021/11/01 13:56:47;;;;;;;18.40;12.98;;;;;;;;;;4392688;32;20089;-63
2021/11/01 14:19:18;;;;;;;18.85;13.95;;;;;;;;;;4337827;33;20604;-63
2021/11/01 14:35:26;;;;;;;24.23;14.60;;;;;;;;;;4404505;32;20092;-64
2021/11/01 15:15:39;;;;;;;20.33;13.75;;;;;;;;;;4392919;32;20097;-63
2021/11/01 15:21:13;;;;;;;19.77;14.20;;;;;;;;;;4392188;32;20068;-63
2021/11/01 15:30:59;;;;;;;18.83;13.00;;;;;;;;;;4391977;32;20070;-63
2021/11/01 16:18:04;;;;;;;20.48;13.25;;;;;;;;;;4391167;32;20496;-63
2021/11/01 16:20:30;;;;;;;19.05;13.48;;;;;;;;;;4379449;32;20160;-62
2021/11/01 16:23:22;;;;;;;24.17;13.65;;;;;;;;;;4365695;32;20166;-64
2021/11/01 16:25:44;;;;;;;21.55;12.68;;;;;;;;;;4379936;32;20502;-64
2021/11/01 16:28:12;;;;;;;23.67;14.50;;;;;;;;;;4378148;32;20511;-63
2021/11/01 16:30:43;;;;;;;18.73;12.43;;;;;;;;;;4378565;32;20094;-63
2021/11/01 16:33:10;;;;;;;19.12;12.10;;;;;;;;;;4390542;32;20080;-62
2021/11/01 16:35:41;;;;;;;18.20;12.52;;;;;;;;;;4391805;32;20089;-64
2021/11/01 16:38:11;;;;;;;23.55;14.13;;;;;;;;;;4390668;32;20170;-62
2021/11/01 16:40:42;;;;;;;23.55;13.93;;;;;;;;;;4377995;32;20093;-64
2021/11/01 16:43:16;;;;;;;18.70;13.57;;;;;;;;;;4390219;32;20074;-62
2021/11/01 16:45:44;;;;;;;19.37;13.13;;;;;;;;;;4390445;32;20152;-62
2021/11/01 16:48:12;;;;;;;21.70;13.75;;;;;;;;;;4390643;32;20548;-62
2021/11/01 16:50:39;;;;;;;22.40;13.23;;;;;;;;;;4390241;32;20448;-63
2021/11/01 16:53:07;;;;;;;20.25;12.85;;;;;;;;;;4377663;32;20502;-63
2021/11/01 16:55:43;;;;;;;19.73;13.73;;;;;;;;;;4377613;32;20578;-63
2021/11/01 16:58:35;;;;;;;;;;;;;;;;;;4392640;32;20117;-63
2021/11/01 17:01:02;;;;;;;17.08;12.77;;;;;;;;;;4380644;32;20049;-64
2021/11/01 17:22:30;;;;;;;22.65;12.57;;;;;;;;;;4390061;32;20085;-63
2021/11/01 17:25:45;;;;;;;18.10;11.95;;;;;;;;;;4389694;32;20066;-63
2021/11/01 17:28:41;;;;;;;19.08;11.55;;;;;;;;;;4385461;32;20066;-64
2021/11/01 17:30:54;;;;;;;15.07;11.35;;;;;;;;;;4384122;32;20070;-62
2021/11/01 18:24:27;;;;;;;15.23;10.48;;;;;;;;;;4390381;32;20107;-64
2021/11/01 18:40:39;;;;;;;15.02;10.30;;;;;;;;;;4363350;32;20167;-63
2021/11/01 18:51:05;;;;;;;15.18;11.35;;;;;;;;;;4366986;32;20074;-63
2021/11/01 18:53:55;;;;;;;17.48;10.75;;;;;;;;;;4365359;32;20085;-63
2021/11/01 18:56:27;;;;;;;15.02;10.52;;;;;;;;;;4353017;32;20081;-62
2021/11/01 18:58:54;;;;;;;14.85;10.13;;;;;;;;;;4353511;32;20154;-63
2021/11/01 19:01:20;;;;;;;16.45;10.93;;;;;;;;;;4327714;32;20183;-63
2021/11/01 19:03:51;;;;;;;15.65;10.75;;;;;;;;;;4340074;32;20084;-63
2021/11/01 19:09:21;;;;;;;15.60;10.15;;;;;;;;;;4364810;32;20090;-62
2021/11/01 20:05:07;;;;;;;19.20;11.57;;;;;;;;;;4355031;32;20093;-63
2021/11/01 20:14:12;;;;;;;16.70;11.40;;;;;;;;;;4363602;32;19964;-63
2021/11/01 21:25:54;;;;;;;18.35;12.15;;;;;;;;;;4364785;32;20524;-64
2021/11/01 21:28:21;;;;;;;17.80;12.40;;;;;;;;;;4351041;32;20090;-63
2021/11/01 21:30:49;;;;;;;16.25;11.35;;;;;;;;;;4350589;32;20151;-63
2021/11/01 21:33:19;;;;;;;15.90;11.73;;;;;;;;;;4350353;32;20160;-63
2021/11/01 21:35:51;;;;;;;16.52;11.93;;;;;;;;;;4363246;32;20527;-63
2021/11/01 21:38:17;;;;;;;17.67;11.88;;;;;;;;;;4339027;32;20093;-64
2021/11/01 21:40:47;;;;;;;16.90;12.45;;;;;;;;;;4350255;32;20089;-63
2021/11/01 21:43:14;;;;;;;18.12;12.30;;;;;;;;;;4337375;32;20086;-63
2021/11/01 21:45:41;;;;;;;18.67;12.50;;;;;;;;;;4350475;32;20150;-63
2021/11/01 21:48:08;;;;;;;16.30;12.25;;;;;;;;;;4338185;32;20070;-63
2021/11/01 21:50:35;;;;;;;18.12;13.20;;;;;;;;;;4362782;32;20077;-63
2021/11/01 21:53:05;;;;;;;19.25;12.40;;;;;;;;;;4362516;32;20524;-64
2021/11/01 21:55:32;;;;;;;22.77;14.07;;;;;;;;;;4351129;32;20070;-63
2021/11/01 21:58:12;;;;;;;22.60;13.02;;;;;;;;;;4350413;32;20068;-62
2021/11/01 22:24:36;;;;;;;19.33;13.02;;;;;;;;;;4337416;32;20077;-63
2021/11/01 22:33:33;;;;;;;19.02;14.02;;;;;;;;;;4354838;32;20176;-64
2021/11/01 22:38:32;;;;;;;18.60;12.80;;;;;;;;;;4356370;32;20151;-63
2021/11/01 22:41:10;;;;;;;19.00;13.82;;;;;;;;;;4345546;32;20088;-63
2021/11/01 22:56:52;;;;;;;17.23;12.45;;;;;;;;;;4366863;32;20089;-63
2021/11/01 22:59:18;;;;;;;16.73;11.68;;;;;;;;;;4353367;32;20066;-63
2021/11/01 23:01:47;;;;;;;20.02;13.55;;;;;;;;;;4352610;32;20508;-63
2021/11/01 23:04:33;;;;;;;20.88;12.85;;;;;;;;;;4352641;32;20080;-62
2021/11/01 23:31:45;;;;;;;17.55;12.27;;;;;;;;;;4366054;32;20504;-63
2021/11/01 23:34:13;;;;;;;17.60;12.23;;;;;;;;;;4378008;32;20092;-63
2021/11/01 23:36:42;;;;;;;18.55;12.82;;;;;;;;;;4364188;32;20078;-65
2021/11/01 23:39:10;;;;;;;17.67;13.02;;;;;;;;;;4339349;32;20157;-63
2021/11/01 23:41:37;;;;;;;21.50;13.10;;;;;;;;;;4352006;32;20082;-63
2021/11/01 23:44:04;;;;;;;20.25;12.88;;;;;;;;;;4339302;32;20067;-64
2021/11/01 23:46:31;;;;;;;18.98;12.40;;;;;;;;;;4351397;32;20090;-63
2021/11/01 23:48:58;;;;;;;16.70;12.02;;;;;;;;;;4327336;32;20080;-64
2021/11/01 23:51:32;;;;;;;17.85;11.98;;;;;;;;;;4327258;32;20089;-63
2021/11/01 23:56:38;;;;;;;17.20;12.70;;;;;;;;;;4364776;32;20082;-63
2021/11/01 23:59:04;;;;;;;19.17;12.82;;;;;;;;;;4364079;32;20161;-62
